Time;durP1;ratioP1;P1;durP2;ratioP2;P2;SDS_P1;SDS_P2;PMS_P1;PMS_P2;Temp;Humidity;BMP_temperature;BMP_pressure;BME280_temperature;BME280_humidity;BME280_pressure;Samples;Min_cycle;Max_cycle;Signal;HPM_P1;HPM_P2
2024/01/07 00:01:45;;;;;;;21.60;17.02;;;4.40;87.80;;;;;;5032205;28;20026;-78
2024/01/07 00:04:10;;;;;;;22.08;17.13;;;4.50;87.80;;;;;;5033572;28;20040;-78
2024/01/07 00:06:36;;;;;;;22.42;16.73;;;4.50;87.80;;;;;;5032553;28;20462;-78
2024/01/07 00:09:01;;;;;;;25.08;18.73;;;4.50;87.70;;;;;;5033487;28;20036;-79
2024/01/07 00:11:27;;;;;;;23.15;17.77;;;4.50;87.60;;;;;;5033508;28;20026;-80
2024/01/07 00:13:52;;;;;;;22.88;17.58;;;4.50;87.40;;;;;;5032117;28;20025;-79
2024/01/07 00:16:18;;;;;;;22.95;17.83;;;4.50;87.30;;;;;;5033388;28;20036;-79
2024/01/07 00:18:44;;;;;;;24.75;18.08;;;4.50;87.30;;;;;;5033371;28;20104;-79
2024/01/07 00:21:10;;;;;;;25.70;18.80;;;4.50;87.30;;;;;;5032020;28;20397;-78
2024/01/07 00:23:35;;;;;;;22.25;17.80;;;4.50;87.30;;;;;;5031954;28;20030;-80
2024/01/07 00:26:04;;;;;;;23.67;17.73;;;4.40;87.30;;;;;;5032966;28;20026;-78
2024/01/07 00:28:30;;;;;;;21.65;16.65;;;4.40;87.40;;;;;;5033101;28;20045;-78
2024/01/07 00:30:55;;;;;;;20.08;15.35;;;4.40;87.50;;;;;;5033135;28;20018;-76
2024/01/07 00:33:21;;;;;;;20.73;16.25;;;4.40;87.50;;;;;;5032954;28;20087;-76
2024/01/07 00:35:46;;;;;;;17.70;13.85;;;4.40;87.40;;;;;;5032903;28;20029;-75
2024/01/07 00:38:12;;;;;;;19.65;15.23;;;4.50;87.30;;;;;;5032908;28;20033;-76
2024/01/07 00:40:38;;;;;;;18.60;14.05;;;4.50;87.20;;;;;;5033042;28;20036;-76
2024/01/07 00:43:03;;;;;;;19.55;15.55;;;4.50;86.90;;;;;;5031692;28;20017;-75
2024/01/07 00:45:29;;;;;;;18.70;14.90;;;4.50;87.00;;;;;;5032455;28;20037;-75
2024/01/07 00:47:54;;;;;;;20.90;14.65;;;4.60;87.00;;;;;;5032831;28;20391;-75
2024/01/07 00:50:20;;;;;;;20.02;14.57;;;4.60;86.80;;;;;;5032772;28;20025;-76
2024/01/07 00:52:46;;;;;;;22.55;16.52;;;4.60;86.80;;;;;;5032902;28;20083;-78
2024/01/07 00:55:12;;;;;;;19.10;13.75;;;4.60;86.70;;;;;;5032853;28;20026;-75
2024/01/07 00:57:37;;;;;;;20.63;13.63;;;4.60;86.30;;;;;;5032683;28;20026;-75
2024/01/07 01:00:06;;;;;;;15.45;11.57;;;4.60;86.30;;;;;;5032583;28;20036;-75
2024/01/07 01:02:32;;;;;;;19.35;12.82;;;4.60;86.00;;;;;;5032763;28;20029;-75
2024/01/07 01:04:58;;;;;;;16.10;10.93;;;4.60;85.90;;;;;;5032741;28;20084;-75
2024/01/07 01:07:23;;;;;;;19.48;13.77;;;4.50;85.90;;;;;;5031333;28;20022;-76
2024/01/07 01:09:49;;;;;;;18.95;14.18;;;4.50;85.80;;;;;;5032548;28;20082;-74
2024/01/07 01:12:14;;;;;;;17.20;12.80;;;4.50;86.10;;;;;;5032764;28;20026;-75
2024/01/07 01:14:41;;;;;;;17.73;12.70;;;4.40;86.30;;;;;;5032734;28;20068;-75
2024/01/07 01:17:06;;;;;;;15.88;11.55;;;4.50;86.20;;;;;;5032690;28;20537;-75
2024/01/07 01:19:32;;;;;;;17.40;12.48;;;4.50;86.00;;;;;;5032428;28;20045;-75
2024/01/07 01:21:57;;;;;;;18.05;11.07;;;4.40;85.90;;;;;;5032562;28;20470;-75
2024/01/07 01:24:23;;;;;;;14.75;10.77;;;4.40;86.20;;;;;;5032539;28;20053;-75
2024/01/07 01:26:48;;;;;;;15.93;11.23;;;4.40;86.30;;;;;;5032549;28;20037;-74
2024/01/07 01:29:14;;;;;;;14.35;11.93;;;4.30;86.30;;;;;;5032392;28;20049;-74
2024/01/07 01:31:40;;;;;;;12.75;10.50;;;4.40;86.40;;;;;;5032447;28;20022;-76
2024/01/07 01:34:05;;;;;;;12.48;10.10;;;4.40;86.30;;;;;;5032378;28;20487;-76
2024/01/07 01:36:31;;;;;;;13.60;11.13;;;4.40;86.00;;;;;;5032357;28;20536;-77
2024/01/07 01:38:57;;;;;;;17.05;12.07;;;4.50;86.10;;;;;;5032431;28;20501;-76
2024/01/07 01:41:23;;;;;;;15.73;12.35;;;4.50;86.00;;;;;;5032446;28;20026;-78
2024/01/07 01:43:48;;;;;;;15.43;11.80;;;4.60;85.90;;;;;;5032413;28;20025;-79
2024/01/07 01:46:14;;;;;;;15.57;11.60;;;4.70;85.90;;;;;;5032241;28;20041;-80
2024/01/07 01:48:40;;;;;;;15.40;10.63;;;4.60;85.40;;;;;;5032149;28;20034;-78
2024/01/07 01:51:06;;;;;;;15.52;12.63;;;4.60;85.30;;;;;;5031029;28;20124;-78
2024/01/07 01:53:33;;;;;;;16.05;12.02;;;4.60;85.30;;;;;;5032308;28;20104;-77
2024/01/07 01:56:02;;;;;;;16.27;12.30;;;4.60;85.10;;;;;;5032211;28;20478;-79
2024/01/07 01:58:29;;;;;;;16.77;13.20;;;4.60;85.20;;;;;;5033809;28;20371;-79
2024/01/07 02:00:55;;;;;;;15.90;11.68;;;4.60;85.30;;;;;;5035884;28;20076;-79
2024/01/07 02:03:20;;;;;;;17.73;13.02;;;4.60;85.40;;;;;;5035706;28;20026;-78
2024/01/07 02:05:49;;;;;;;15.88;13.10;;;4.60;85.30;;;;;;5035779;28;20026;-79
2024/01/07 02:08:14;;;;;;;15.13;12.35;;;4.60;86.20;;;;;;5034443;28;20601;-79
2024/01/07 02:10:40;;;;;;;19.67;14.73;;;4.60;85.30;;;;;;5035579;28;20149;-78
2024/01/07 02:13:05;;;;;;;21.27;15.23;;;4.60;85.50;;;;;;5035745;28;20021;-78
2024/01/07 02:15:31;;;;;;;22.33;16.85;;;4.50;85.60;;;;;;5035543;28;20028;-79
2024/01/07 02:17:57;;;;;;;23.45;17.02;;;4.40;85.90;;;;;;5035469;28;20107;-78
2024/01/07 02:20:23;;;;;;;22.95;17.13;;;4.40;86.00;;;;;;5035411;28;20490;-78
2024/01/07 02:22:49;;;;;;;23.50;17.77;;;4.40;86.10;;;;;;5035459;28;20859;-79
2024/01/07 02:25:15;;;;;;;25.45;18.08;;;4.30;86.50;;;;;;5035093;28;20037;-79
2024/01/07 02:27:40;;;;;;;25.60;18.83;;;4.30;86.90;;;;;;5035248;28;20029;-78
2024/01/07 02:30:06;;;;;;;24.00;18.63;;;4.20;87.20;;;;;;5035085;28;20054;-77
2024/01/07 02:32:34;;;;;;;29.35;20.42;;;4.10;87.60;;;;;;5035353;28;20029;-78
2024/01/07 02:35:00;;;;;;;26.42;19.77;;;4.10;87.90;;;;;;5035193;28;20407;-77
2024/01/07 02:37:26;;;;;;;30.73;21.05;;;4.10;88.30;;;;;;5035174;28;20060;-77
2024/01/07 02:39:51;;;;;;;29.30;20.33;;;4.10;88.50;;;;;;5035101;28;20037;-76
2024/01/07 02:42:17;;;;;;;33.13;20.20;;;4.00;88.50;;;;;;5035060;28;20429;-77
2024/01/07 02:44:42;;;;;;;27.23;19.52;;;4.00;88.80;;;;;;5035006;28;20482;-77
2024/01/07 02:47:08;;;;;;;27.42;20.40;;;4.00;88.90;;;;;;5034972;28;20017;-77
2024/01/07 02:49:33;;;;;;;29.08;21.35;;;4.10;89.00;;;;;;5034867;28;20143;-75
2024/01/07 02:51:59;;;;;;;29.25;20.13;;;4.10;89.00;;;;;;5034972;28;20049;-78
2024/01/07 02:54:24;;;;;;;24.13;18.35;;;4.10;89.00;;;;;;5034847;28;20026;-77
2024/01/07 02:56:50;;;;;;;23.77;17.90;;;4.20;89.00;;;;;;5034764;28;20083;-77
2024/01/07 02:59:16;;;;;;;24.15;17.35;;;4.10;88.30;;;;;;5034620;28;20038;-77
2024/01/07 03:01:42;;;;;;;22.95;16.42;;;4.10;87.90;;;;;;5034781;28;20025;-77
2024/01/07 03:04:09;;;;;;;20.95;14.70;;;4.10;87.80;;;;;;5034809;28;20032;-77
2024/01/07 03:06:35;;;;;;;20.52;16.27;;;4.10;88.00;;;;;;5034619;28;20026;-76
2024/01/07 03:09:00;;;;;;;17.50;13.50;;;4.10;88.10;;;;;;5034124;28;20099;-78
2024/01/07 03:11:26;;;;;;;14.55;11.02;;;4.00;87.70;;;;;;5033249;28;20123;-78
2024/01/07 03:13:51;;;;;;;15.10;11.18;;;3.90;87.40;;;;;;5034513;28;20021;-77
2024/01/07 03:16:24;;;;;;;13.68;10.50;;;3.90;87.50;;;;;;5034550;28;20377;-78
2024/01/07 03:18:50;;;;;;;14.38;10.77;;;4.00;87.70;;;;;;5034316;28;20037;-77
2024/01/07 03:21:23;;;;;;;12.48;9.35;;;4.00;87.50;;;;;;5034432;28;20492;-77
2024/01/07 03:23:50;;;;;;;14.15;10.55;;;4.10;87.70;;;;;;5034293;28;20017;-76
2024/01/07 03:26:17;;;;;;;12.18;9.73;;;4.10;87.40;;;;;;5034228;28;20025;-75
2024/01/07 03:28:43;;;;;;;10.13;8.15;;;4.20;87.20;;;;;;5034295;28;20045;-75
2024/01/07 03:31:12;;;;;;;9.50;7.47;;;4.20;87.10;;;;;;5034164;28;20385;-75
2024/01/07 03:33:38;;;;;;;11.48;9.30;;;4.30;86.80;;;;;;5033993;28;20026;-75
2024/01/07 03:36:08;;;;;;;13.63;10.02;;;4.30;86.50;;;;;;5033951;28;20067;-75
2024/01/07 03:38:34;;;;;;;13.32;10.05;;;4.20;86.20;;;;;;5033746;28;20025;-75
2024/01/07 03:40:59;;;;;;;12.82;9.90;;;4.10;86.40;;;;;;5032623;28;20033;-75
2024/01/07 03:43:25;;;;;;;14.18;11.20;;;4.10;86.70;;;;;;5033943;28;20489;-75
2024/01/07 03:45:50;;;;;;;14.95;11.30;;;4.10;87.00;;;;;;5033961;28;20029;-75
2024/01/07 03:48:16;;;;;;;12.82;9.25;;;4.00;87.10;;;;;;5033872;28;20021;-75
2024/01/07 03:50:41;;;;;;;11.32;8.30;;;4.00;87.30;;;;;;5033945;28;20026;-75
2024/01/07 03:53:07;;;;;;;11.18;7.90;;;3.90;87.30;;;;;;5033725;28;20052;-74
2024/01/07 03:55:32;;;;;;;10.60;7.63;;;3.90;87.60;;;;;;5033657;28;20083;-74
2024/01/07 03:57:58;;;;;;;10.05;7.07;;;3.90;87.60;;;;;;5033753;28;20501;-74
2024/01/07 04:00:23;;;;;;;9.52;6.63;;;3.90;87.70;;;;;;5033523;28;20037;-74
2024/01/07 04:02:49;;;;;;;11.00;7.35;;;3.90;87.80;;;;;;5033613;28;20033;-73
2024/01/07 04:05:14;;;;;;;9.85;7.78;;;3.90;87.80;;;;;;5033511;28;20025;-74
2024/01/07 04:07:40;;;;;;;10.32;7.55;;;4.00;87.80;;;;;;5033491;28;20029;-73
2024/01/07 04:10:06;;;;;;;12.05;8.10;;;3.90;88.00;;;;;;5033383;28;20053;-74
2024/01/07 04:12:32;;;;;;;24.15;17.38;;;3.90;88.10;;;;;;5033501;28;20021;-75
2024/01/07 04:14:57;;;;;;;16.17;11.70;;;3.90;88.10;;;;;;5033362;28;20018;-74
2024/01/07 04:17:23;;;;;;;9.75;7.88;;;3.90;88.10;;;;;;5033291;28;20078;-74
2024/01/07 04:19:49;;;;;;;12.63;8.15;;;3.90;88.00;;;;;;5031760;28;20478;-74
2024/01/07 04:22:15;;;;;;;11.48;7.50;;;3.90;88.10;;;;;;5032776;28;20018;-74
2024/01/07 04:24:41;;;;;;;14.07;8.82;;;3.80;87.90;;;;;;5033067;28;20036;-75
2024/01/07 04:27:07;;;;;;;10.85;7.22;;;3.80;88.30;;;;;;5033166;28;20018;-74
2024/01/07 04:29:32;;;;;;;10.93;7.38;;;3.70;88.50;;;;;;5032960;28;20053;-74
2024/01/07 04:31:58;;;;;;;10.15;7.75;;;3.70;88.80;;;;;;5033010;28;20021;-74
2024/01/07 04:34:24;;;;;;;12.20;8.60;;;3.70;88.90;;;;;;5033056;28;20083;-75
2024/01/07 04:36:50;;;;;;;9.07;6.95;;;3.80;88.60;;;;;;5033100;28;20051;-75
2024/01/07 04:39:15;;;;;;;10.48;7.25;;;3.80;88.60;;;;;;5033380;28;20434;-75
2024/01/07 04:41:42;;;;;;;9.93;6.88;;;3.90;88.40;;;;;;5033349;28;20049;-75
2024/01/07 04:44:07;;;;;;;10.90;7.45;;;3.80;88.20;;;;;;5033030;28;20022;-74
2024/01/07 04:46:38;;;;;;;13.27;8.88;;;3.80;88.40;;;;;;5032960;28;20029;-75
2024/01/07 04:49:05;;;;;;;13.10;9.63;;;3.90;88.60;;;;;;5032973;28;20025;-74
2024/01/07 04:51:31;;;;;;;12.85;9.75;;;3.90;88.40;;;;;;5032830;28;20403;-75
2024/01/07 04:53:56;;;;;;;12.18;9.23;;;3.80;88.40;;;;;;5032762;28;20100;-75
2024/01/07 04:56:22;;;;;;;15.05;9.70;;;3.80;88.60;;;;;;5032794;28;20091;-75
2024/01/07 04:58:47;;;;;;;15.32;10.32;;;3.80;88.50;;;;;;5032687;28;20096;-75
2024/01/07 05:01:13;;;;;;;16.40;11.43;;;3.80;88.50;;;;;;5032655;28;20021;-75
2024/01/07 05:03:38;;;;;;;16.17;10.93;;;3.80;88.40;;;;;;5032689;28;20087;-75
2024/01/07 05:06:04;;;;;;;14.13;10.45;;;3.90;88.60;;;;;;5032641;28;20082;-75
2024/01/07 05:08:30;;;;;;;15.57;11.02;;;3.90;88.60;;;;;;5032606;28;20098;-76
2024/01/07 05:10:56;;;;;;;15.05;10.55;;;3.90;88.60;;;;;;5032654;28;20025;-75
2024/01/07 05:13:22;;;;;;;17.13;11.68;;;3.90;88.20;;;;;;5032605;28;20044;-75
2024/01/07 05:15:53;;;;;;;14.73;11.70;;;3.90;88.20;;;;;;5031323;28;20029;-76
2024/01/07 05:18:22;;;;;;;16.90;12.23;;;4.00;88.30;;;;;;5032545;28;20030;-76
2024/01/07 05:20:48;;;;;;;14.82;11.23;;;4.00;88.10;;;;;;5032823;28;20124;-75
2024/01/07 05:23:14;;;;;;;19.77;13.27;;;4.10;88.20;;;;;;5031471;28;20108;-76
2024/01/07 05:25:42;;;;;;;15.18;10.90;;;4.10;87.80;;;;;;5032446;28;20030;-76
2024/01/07 05:28:07;;;;;;;16.65;11.70;;;4.10;87.70;;;;;;5031033;28;20056;-75
2024/01/07 05:30:33;;;;;;;14.88;11.07;;;4.10;87.50;;;;;;5032363;28;20077;-76
2024/01/07 05:32:58;;;;;;;16.10;10.90;;;4.10;87.10;;;;;;5035183;28;20037;-76
2024/01/07 05:35:24;;;;;;;15.73;11.27;;;4.10;87.00;;;;;;5036383;28;20091;-76
2024/01/07 05:37:49;;;;;;;17.42;11.75;;;4.20;87.10;;;;;;5036274;28;20025;-75
2024/01/07 05:40:15;;;;;;;18.90;14.13;;;4.20;86.80;;;;;;5036188;28;20037;-75
2024/01/07 05:42:40;;;;;;;18.00;13.27;;;4.10;86.70;;;;;;5036363;28;20057;-76
2024/01/07 05:45:06;;;;;;;15.38;11.40;;;3.90;86.90;;;;;;5036233;28;20026;-75
2024/01/07 05:47:32;;;;;;;15.43;10.35;;;4.00;87.20;;;;;;5036225;28;20028;-75
2024/01/07 05:49:58;;;;;;;15.15;10.63;;;3.90;87.40;;;;;;5036190;28;20076;-75
2024/01/07 05:52:24;;;;;;;14.15;10.70;;;3.90;87.70;;;;;;5035967;28;20025;-75
2024/01/07 05:54:49;;;;;;;15.65;10.75;;;3.80;87.90;;;;;;5036200;28;20026;-75
2024/01/07 05:57:15;;;;;;;15.48;11.82;;;3.70;88.30;;;;;;5035970;28;20037;-75
2024/01/07 05:59:40;;;;;;;16.65;12.77;;;3.70;88.40;;;;;;5035799;28;20037;-75
2024/01/07 06:02:06;;;;;;;17.63;13.32;;;3.70;88.40;;;;;;5036237;28;20028;-75
2024/01/07 06:04:32;;;;;;;18.25;13.07;;;3.70;88.30;;;;;;5035841;28;20026;-75
2024/01/07 06:06:58;;;;;;;20.75;14.10;;;3.70;88.40;;;;;;5035785;28;20053;-76
2024/01/07 06:09:24;;;;;;;17.98;13.98;;;3.80;88.20;;;;;;5035681;28;20466;-76
2024/01/07 06:11:50;;;;;;;19.02;13.43;;;3.80;88.10;;;;;;5035979;28;20021;-76
2024/01/07 06:14:16;;;;;;;21.02;13.68;;;3.80;87.90;;;;;;5034868;28;20029;-75
2024/01/07 06:16:42;;;;;;;17.85;13.38;;;3.70;87.80;;;;;;5040032;28;20021;-75
2024/01/07 06:19:08;;;;;;;18.60;13.55;;;3.60;88.00;;;;;;5034265;28;20033;-76
2024/01/07 06:21:33;;;;;;;19.65;12.38;;;3.50;88.40;;;;;;5035489;28;20027;-77
2024/01/07 06:23:59;;;;;;;20.02;12.40;;;3.50;88.80;;;;;;5035515;28;20425;-76
2024/01/07 06:26:24;;;;;;;16.38;12.25;;;3.50;88.70;;;;;;5033949;28;20529;-76
2024/01/07 06:28:50;;;;;;;19.02;12.90;;;3.50;88.80;;;;;;5033942;28;20045;-75
2024/01/07 06:31:15;;;;;;;18.30;12.50;;;3.40;88.60;;;;;;5035578;28;20389;-75
2024/01/07 06:33:41;;;;;;;16.70;13.45;;;3.30;88.50;;;;;;5035292;28;20052;-76
2024/01/07 06:36:07;;;;;;;21.98;15.77;;;3.30;88.80;;;;;;5034098;28;20021;-77
2024/01/07 06:38:33;;;;;;;21.27;15.65;;;3.40;88.80;;;;;;5035350;28;20029;-76
2024/01/07 06:41:01;;;;;;;19.50;14.45;;;3.50;88.80;;;;;;5035156;28;20026;-75
2024/01/07 06:43:30;;;;;;;21.63;14.32;;;3.50;88.70;;;;;;5034671;28;20105;-78
2024/01/07 06:45:55;;;;;;;19.65;14.00;;;3.60;88.70;;;;;;5035251;28;20025;-78
2024/01/07 06:48:21;;;;;;;16.88;14.15;;;3.70;89.50;;;;;;5035163;28;20355;-78
2024/01/07 06:50:47;;;;;;;20.67;14.40;;;3.70;88.30;;;;;;5035092;28;20022;-79
2024/01/07 06:53:12;;;;;;;18.33;14.75;;;3.80;88.10;;;;;;5035053;28;20018;-79
2024/01/07 06:55:39;;;;;;;17.63;13.63;;;3.80;87.70;;;;;;5035046;28;20030;-78
2024/01/07 06:58:04;;;;;;;22.58;14.35;;;3.80;87.30;;;;;;5033767;28;20382;-79
2024/01/07 07:00:30;;;;;;;15.98;12.77;;;3.80;87.60;;;;;;5034886;28;20045;-78
2024/01/07 07:02:56;;;;;;;13.23;10.55;;;3.80;87.50;;;;;;5034892;28;20025;-78
2024/01/07 07:05:21;;;;;;;15.85;11.05;;;3.70;87.20;;;;;;5034823;28;20022;-76
2024/01/07 07:07:47;;;;;;;12.38;11.02;;;3.80;87.00;;;;;;5035156;28;20030;-78
2024/01/07 07:10:12;;;;;;;12.50;10.63;;;3.80;87.10;;;;;;5034694;28;20025;-79
2024/01/07 07:12:38;;;;;;;14.27;11.70;;;3.80;86.80;;;;;;5033422;28;20029;-78
2024/01/07 07:15:04;;;;;;;10.98;9.80;;;3.80;86.70;;;;;;5034633;28;20079;-77
2024/01/07 07:17:29;;;;;;;12.93;10.13;;;3.90;86.70;;;;;;5034652;28;20075;-75
2024/01/07 07:19:55;;;;;;;12.23;10.98;;;3.90;86.00;;;;;;5034376;28;20043;-75
2024/01/07 07:22:20;;;;;;;11.23;9.20;;;3.70;86.10;;;;;;5033228;28;20025;-77
2024/01/07 07:24:48;;;;;;;10.43;9.32;;;3.80;86.40;;;;;;5034350;28;20033;-78
2024/01/07 07:27:14;;;;;;;11.23;10.02;;;3.80;86.60;;;;;;5034604;28;20022;-78
2024/01/07 07:29:39;;;;;;;14.00;10.50;;;3.80;86.10;;;;;;5033131;28;20049;-79
2024/01/07 07:32:05;;;;;;;9.68;8.70;;;3.90;86.10;;;;;;5034492;28;20082;-77
2024/01/07 07:34:31;;;;;;;10.65;9.07;;;3.80;85.60;;;;;;5034277;28;20030;-77
2024/01/07 07:36:56;;;;;;;9.15;7.45;;;3.90;85.70;;;;;;5034376;28;20017;-77
2024/01/07 07:39:22;;;;;;;8.82;7.45;;;3.90;85.60;;;;;;5035914;28;20040;-75
2024/01/07 07:41:48;;;;;;;9.60;8.27;;;3.90;85.60;;;;;;5035586;28;20029;-75
2024/01/07 07:44:13;;;;;;;9.90;8.20;;;3.90;85.40;;;;;;5034045;28;20400;-76
2024/01/07 07:46:39;;;;;;;12.60;9.20;;;3.90;85.40;;;;;;5034010;28;20025;-75
2024/01/07 07:49:04;;;;;;;9.20;7.90;;;3.90;85.60;;;;;;5034130;28;20109;-76
2024/01/07 07:51:30;;;;;;;11.13;8.57;;;3.90;85.70;;;;;;5033867;28;20037;-75
2024/01/07 07:53:56;;;;;;;10.40;8.75;;;3.90;84.90;;;;;;5033831;28;20041;-77
2024/01/07 07:56:21;;;;;;;11.77;9.52;;;3.80;84.60;;;;;;5032884;28;20037;-77
2024/01/07 07:58:47;;;;;;;14.45;10.55;;;3.80;84.90;;;;;;5034153;28;20021;-79
2024/01/07 08:01:12;;;;;;;14.30;11.00;;;3.90;85.40;;;;;;5033968;28;20488;-79
2024/01/07 08:03:38;;;;;;;13.68;9.93;;;3.80;85.20;;;;;;5033848;28;20096;-79
2024/01/07 08:06:04;;;;;;;15.23;10.50;;;3.80;85.40;;;;;;5034090;28;20052;-78
2024/01/07 08:08:29;;;;;;;14.02;10.85;;;3.80;85.30;;;;;;5033988;28;20041;-78
2024/01/07 08:10:55;;;;;;;14.60;12.70;;;3.60;85.60;;;;;;5033546;28;20031;-76
2024/01/07 08:13:20;;;;;;;13.23;11.43;;;3.70;87.00;;;;;;5034185;28;20025;-75
2024/01/07 08:15:47;;;;;;;14.25;12.23;;;3.70;86.40;;;;;;5033123;28;20113;-77
2024/01/07 08:18:13;;;;;;;13.82;12.10;;;3.70;86.20;;;;;;5034261;28;20028;-79
2024/01/07 08:20:38;;;;;;;14.82;12.50;;;3.70;85.90;;;;;;5033045;28;20049;-77
2024/01/07 08:23:04;;;;;;;14.93;12.05;;;3.70;85.90;;;;;;5033302;28;20018;-78
2024/01/07 08:25:30;;;;;;;14.50;11.57;;;3.70;86.10;;;;;;5031767;28;20030;-77
2024/01/07 08:27:56;;;;;;;13.65;12.05;;;3.70;85.90;;;;;;5033274;28;20055;-76
2024/01/07 08:30:21;;;;;;;14.43;12.85;;;3.70;86.00;;;;;;5033047;28;20045;-79
2024/01/07 08:32:47;;;;;;;14.68;12.95;;;3.70;86.10;;;;;;5033480;28;20036;-77
2024/01/07 08:35:13;;;;;;;15.30;13.27;;;3.80;86.00;;;;;;5033145;28;20030;-79
2024/01/07 08:37:38;;;;;;;15.25;12.98;;;3.80;86.00;;;;;;5033107;28;20116;-77
2024/01/07 08:40:10;;;;;;;13.95;11.60;;;3.80;85.70;;;;;;5031283;28;20038;-78
2024/01/07 08:42:39;;;;;;;15.27;12.70;;;3.70;85.70;;;;;;5031793;28;20029;-77
2024/01/07 08:45:05;;;;;;;15.90;12.30;;;3.80;85.70;;;;;;5033044;28;20566;-76
2024/01/07 08:47:31;;;;;;;14.98;11.70;;;3.80;85.80;;;;;;5031678;28;20163;-77
2024/01/07 08:49:57;;;;;;;15.30;11.88;;;3.70;85.60;;;;;;5033041;28;20151;-78
2024/01/07 08:52:23;;;;;;;14.88;11.32;;;3.70;85.80;;;;;;5033731;28;20032;-80
2024/01/07 08:54:49;;;;;;;19.70;12.75;;;3.70;86.00;;;;;;5031753;28;20030;-75
2024/01/07 08:57:14;;;;;;;17.42;13.35;;;4.20;91.20;;;;;;5032936;28;20017;-76
2024/01/07 08:59:40;;;;;;;14.10;11.02;;;4.70;90.40;;;;;;5033403;28;20386;-73
2024/01/07 09:02:05;;;;;;;14.60;10.82;;;5.40;86.80;;;;;;5034662;28;20478;-74
2024/01/07 09:04:33;;;;;;;13.20;10.00;;;6.10;82.90;;;;;;5036593;28;20026;-75
2024/01/07 09:06:59;;;;;;;11.02;9.65;;;6.50;77.70;;;;;;5034275;28;20021;-76
2024/01/07 09:09:24;;;;;;;12.80;9.60;;;6.80;74.60;;;;;;5036977;28;20018;-76
2024/01/07 09:11:51;;;;;;;10.10;8.93;;;6.90;73.90;;;;;;5036773;28;20040;-74
2024/01/07 09:14:17;;;;;;;10.75;9.32;;;7.10;73.00;;;;;;5036679;28;20090;-74
2024/01/07 09:16:43;;;;;;;10.65;7.95;;;7.20;71.90;;;;;;5036711;28;20409;-75
2024/01/07 09:19:08;;;;;;;11.45;8.60;;;7.50;72.20;;;;;;5036592;28;20589;-75
2024/01/07 09:21:34;;;;;;;9.50;7.80;;;7.60;70.40;;;;;;5036633;28;20083;-74
2024/01/07 09:23:59;;;;;;;9.82;8.80;;;7.60;69.20;;;;;;5036648;28;20022;-78
2024/01/07 09:26:25;;;;;;;10.82;9.73;;;7.50;68.50;;;;;;5035235;28;20099;-78
2024/01/07 09:28:51;;;;;;;12.27;9.98;;;7.10;69.80;;;;;;5034986;28;20041;-79
2024/01/07 09:31:17;;;;;;;11.57;9.88;;;6.70;70.90;;;;;;5036532;28;20014;-77
2024/01/07 09:33:43;;;;;;;12.30;10.93;;;6.20;72.70;;;;;;5036474;28;20113;-79
2024/01/07 09:36:08;;;;;;;13.90;11.55;;;5.90;74.40;;;;;;5036390;28;20497;-77
2024/01/07 09:38:34;;;;;;;14.68;11.95;;;5.60;75.90;;;;;;5036238;28;20026;-77
2024/01/07 09:41:00;;;;;;;14.02;11.82;;;5.40;77.20;;;;;;5036560;28;20087;-76
2024/01/07 09:43:25;;;;;;;16.73;13.20;;;4.90;79.30;;;;;;5036337;28;20032;-77
2024/01/07 09:45:53;;;;;;;13.35;11.95;;;4.60;80.50;;;;;;5037234;28;20087;-77
2024/01/07 09:48:19;;;;;;;14.65;13.10;;;4.50;81.10;;;;;;5036748;28;20022;-78
2024/01/07 09:50:44;;;;;;;15.50;13.35;;;4.40;81.90;;;;;;5036084;28;20076;-79
2024/01/07 09:53:18;;;;;;;15.75;13.18;;;4.20;82.40;;;;;;5036083;28;20029;-76
2024/01/07 09:55:57;;;;;;;17.38;12.90;;;4.10;82.90;;;;;;5034874;28;20025;-77
2024/01/07 09:58:23;;;;;;;17.83;14.48;;;4.00;83.30;;;;;;5034809;28;20017;-78
2024/01/07 10:00:49;;;;;;;18.23;14.55;;;3.80;84.00;;;;;;5035792;28;20041;-76
2024/01/07 10:03:14;;;;;;;20.08;14.70;;;3.80;84.20;;;;;;5035885;28;20446;-76
2024/01/07 10:05:40;;;;;;;19.15;14.70;;;3.70;84.50;;;;;;5016284;28;20033;-80
2024/01/07 10:08:06;;;;;;;17.50;14.35;;;3.70;84.50;;;;;;5016169;28;20101;-76
2024/01/07 10:10:32;;;;;;;17.40;14.35;;;3.60;84.80;;;;;;5015919;28;20117;-76
2024/01/07 10:12:57;;;;;;;18.85;14.15;;;3.60;85.00;;;;;;5014738;28;20104;-76
2024/01/07 10:15:23;;;;;;;18.98;13.57;;;3.50;85.10;;;;;;5020199;28;20022;-77
2024/01/07 10:17:49;;;;;;;17.33;14.73;;;3.50;85.50;;;;;;5015626;28;20018;-76
2024/01/07 10:20:16;;;;;;;19.20;14.85;;;3.50;85.60;;;;;;5015052;28;20044;-76
2024/01/07 10:22:49;;;;;;;21.08;15.23;;;3.50;85.70;;;;;;5015798;28;20018;-78
2024/01/07 10:25:15;;;;;;;19.92;15.75;;;3.40;85.50;;;;;;5015887;28;20061;-76
2024/01/07 10:27:41;;;;;;;22.02;16.20;;;3.40;85.40;;;;;;5015621;28;20570;-75
2024/01/07 10:30:07;;;;;;;22.33;15.43;;;3.30;85.70;;;;;;5014141;28;20121;-78
2024/01/07 10:32:35;;;;;;;20.70;14.73;;;3.30;85.90;;;;;;5015562;28;20076;-76
2024/01/07 10:35:05;;;;;;;22.00;13.80;;;3.20;85.60;;;;;;5015679;28;20017;-78
2024/01/07 10:37:31;;;;;;;20.48;14.40;;;3.20;85.80;;;;;;5015434;28;20109;-76
2024/01/07 10:40:06;;;;;;;18.63;13.13;;;3.20;85.60;;;;;;5015427;28;20045;-77
2024/01/07 10:42:32;;;;;;;18.70;12.55;;;3.30;85.60;;;;;;5014584;28;20026;-78
2024/01/07 10:44:58;;;;;;;18.92;13.40;;;3.40;85.30;;;;;;5015516;28;20038;-78
2024/01/07 10:47:31;;;;;;;18.80;12.45;;;3.50;84.90;;;;;;5015373;28;20022;-79
2024/01/07 10:50:00;;;;;;;17.55;12.23;;;3.60;84.60;;;;;;5016381;28;20032;-80
2024/01/07 10:52:29;;;;;;;16.05;10.73;;;3.60;83.90;;;;;;5017688;28;20057;-79
2024/01/07 10:55:08;;;;;;;17.00;11.95;;;3.70;83.60;;;;;;5017694;28;20170;-80
2024/01/07 10:57:46;;;;;;;15.05;11.35;;;3.80;83.20;;;;;;5017140;28;20022;-79
2024/01/07 11:00:19;;;;;;;17.70;11.20;;;3.70;82.30;;;;;;5016434;28;20036;-78
2024/01/07 11:03:09;;;;;;;15.52;11.60;;;3.70;82.20;;;;;;5016616;28;20028;-78
2024/01/07 11:05:59;;;;;;;15.80;10.48;;;3.70;82.30;;;;;;5017009;28;20108;-78
2024/01/07 11:08:53;;;;;;;16.00;12.13;;;3.80;82.40;;;;;;5017367;28;20032;-77
2024/01/07 11:11:25;;;;;;;17.70;12.15;;;3.80;82.30;;;;;;5016082;28;20357;-78
2024/01/07 11:13:51;;;;;;;16.98;12.05;;;3.80;81.50;;;;;;5015929;28;20079;-79
2024/01/07 11:16:40;;;;;;;18.27;11.57;;;3.60;81.20;;;;;;5016497;28;20030;-77
2024/01/07 11:19:05;;;;;;;15.80;11.98;;;3.70;81.70;;;;;;5015854;28;20022;-81
2024/01/07 11:21:31;;;;;;;19.27;13.70;;;3.60;81.60;;;;;;5017183;28;20034;-80
2024/01/07 11:23:56;;;;;;;19.42;13.52;;;3.50;81.60;;;;;;5016701;28;20471;-79
2024/01/07 11:26:22;;;;;;;20.90;13.95;;;3.40;82.00;;;;;;5017400;28;20030;-79
2024/01/07 11:28:51;;;;;;;23.45;15.20;;;3.40;82.50;;;;;;5016226;28;20471;-80
2024/01/07 11:31:38;;;;;;;22.50;15.98;;;3.50;82.90;;;;;;5016641;28;20022;-80
2024/01/07 11:34:04;;;;;;;21.35;14.85;;;3.60;83.00;;;;;;5016123;28;20022;-78
2024/01/07 11:36:29;;;;;;;22.27;15.68;;;3.60;82.80;;;;;;5017101;28;20578;-81
2024/01/07 11:38:55;;;;;;;20.40;14.70;;;3.60;82.90;;;;;;5016683;28;20038;-79
2024/01/07 11:41:21;;;;;;;18.58;13.82;;;3.60;82.80;;;;;;5015917;28;20030;-78
2024/01/07 11:47:31;;;;;;;17.85;11.77;;;3.50;82.40;;;;;;4974121;28;20506;-80
2024/01/07 11:49:56;;;;;;;15.45;10.57;;;3.30;82.50;;;;;;5023720;28;20036;-78
2024/01/07 11:52:22;;;;;;;15.20;10.52;;;3.20;81.70;;;;;;5035153;28;20025;-78
2024/01/07 11:54:49;;;;;;;18.25;11.32;;;3.10;82.30;;;;;;5035575;28;20029;-80
2024/01/07 11:57:14;;;;;;;14.57;10.45;;;3.10;82.60;;;;;;5034224;28;20156;-79
2024/01/07 11:59:40;;;;;;;16.42;11.60;;;3.10;82.50;;;;;;5035209;28;20077;-79
2024/01/07 12:02:05;;;;;;;16.50;11.70;;;3.20;82.90;;;;;;5034107;28;20029;-79
2024/01/07 12:04:32;;;;;;;15.93;11.80;;;3.10;82.70;;;;;;5035652;28;20525;-80
2024/01/07 12:06:58;;;;;;;15.57;10.43;;;3.10;82.50;;;;;;5035084;28;20037;-78
2024/01/07 12:09:25;;;;;;;14.88;10.60;;;3.20;82.40;;;;;;5034096;28;20053;-78
2024/01/07 12:11:51;;;;;;;14.98;9.57;;;3.20;82.20;;;;;;5034005;28;20030;-79
2024/01/07 12:14:18;;;;;;;14.13;9.25;;;3.10;81.80;;;;;;5034134;28;20096;-78
2024/01/07 12:16:44;;;;;;;14.73;10.30;;;3.10;81.70;;;;;;5033245;28;20386;-80
2024/01/07 12:19:10;;;;;;;17.42;9.25;;;3.10;81.80;;;;;;5034394;28;20028;-80
2024/01/07 12:21:36;;;;;;;14.88;11.02;;;3.20;82.10;;;;;;5034437;28;20113;-78
2024/01/07 12:24:03;;;;;;;16.90;11.48;;;3.10;82.00;;;;;;5033809;28;20481;-76
2024/01/07 12:26:30;;;;;;;15.63;10.75;;;3.10;81.80;;;;;;5032210;28;20030;-76
2024/01/07 12:28:59;;;;;;;17.52;12.60;;;3.10;81.50;;;;;;5033261;28;20490;-77
2024/01/07 12:31:28;;;;;;;15.63;11.27;;;3.10;81.90;;;;;;5033582;28;20413;-77
2024/01/07 12:33:54;;;;;;;15.40;9.63;;;3.10;81.80;;;;;;5033161;28;20072;-77
2024/01/07 12:36:22;;;;;;;15.27;9.88;;;3.10;81.90;;;;;;5033263;28;20037;-77
2024/01/07 12:38:47;;;;;;;17.50;11.27;;;3.10;82.00;;;;;;5033049;28;20028;-76